CXKAL SABE-SACO
Flight info
| Callsign | CXKAL |
|---|---|
| Flight time | 1h 15m |
| Altitude | 34000 |
| Route | ATOVO UW5 ASISA |
| Aircraft | B738/M-SDE2E3FGHIRWXY/LB1 |
Departure
| Time | 2026-05-03 21:19 |
|---|---|
| Airport | Aeroparque Jorge Newbery (SABE) |
Arrival
| Time | 2026-05-03 22:34 |
|---|---|
| Airport | Ingeniero Aeronáutico Ambrosio L.V. Taravella International Airport (SACO) |
| Time | Latitude | Longitude | Altitude | Speed | Heading |
|---|---|---|---|---|---|
| 2026-05-03 20:15 | -34.56193 | -58.41396 | 26 ft | 0 kts | 214° |
| 2026-05-03 21:01 | -34.56211 | -58.41407 | 26 ft | 6 kts | 197° |
| 2026-05-03 21:02 | -34.56253 | -58.41371 | 26 ft | 9 kts | 124° |
| 2026-05-03 21:02 | -34.56289 | -58.41308 | 27 ft | 9 kts | 124° |
| 2026-05-03 21:02 | -34.56323 | -58.41246 | 26 ft | 9 kts | 124° |
| 2026-05-03 21:02 | -34.56356 | -58.41187 | 28 ft | 8 kts | 124° |
| 2026-05-03 21:03 | -34.56389 | -58.41129 | 30 ft | 8 kts | 124° |
| 2026-05-03 21:03 | -34.56420 | -58.41073 | 29 ft | 8 kts | 124° |
| 2026-05-03 21:03 | -34.56449 | -58.41019 | 28 ft | 8 kts | 123° |
| 2026-05-03 21:03 | -34.56477 | -58.40967 | 27 ft | 7 kts | 123° |
| 2026-05-03 21:04 | -34.56505 | -58.40918 | 27 ft | 7 kts | 123° |
| 2026-05-03 21:04 | -34.56513 | -58.40863 | 26 ft | 7 kts | 73° |
| 2026-05-03 21:04 | -34.56494 | -58.40811 | 28 ft | 7 kts | 66° |
| 2026-05-03 21:04 | -34.56492 | -58.40804 | 29 ft | 0 kts | 66° |
| 2026-05-03 21:17 | -34.56470 | -58.40745 | 26 ft | 14 kts | 68° |
| 2026-05-03 21:17 | -34.56430 | -58.40681 | 24 ft | 4 kts | 356° |
| 2026-05-03 21:18 | -34.56414 | -58.40697 | 24 ft | 0 kts | 303° |
| 2026-05-03 21:18 | -34.56409 | -58.40706 | 27 ft | 12 kts | 304° |
| 2026-05-03 21:18 | -34.56207 | -58.41067 | 27 ft | 91 kts | 304° |
| 2026-05-03 21:19 | -34.55727 | -58.41940 | 61 ft | 151 kts | 305° |
| 2026-05-03 21:19 | -34.55132 | -58.43027 | 858 ft | 150 kts | 307° |
| 2026-05-03 21:19 | -34.54396 | -58.43881 | 1720 ft | 148 kts | 347° |
| 2026-05-03 21:19 | -34.53302 | -58.44122 | 2201 ft | 177 kts | 353° |
| 2026-05-03 21:20 | -34.51987 | -58.43932 | 2466 ft | 208 kts | 19° |
| 2026-05-03 21:20 | -34.50652 | -58.43063 | 2893 ft | 227 kts | 28° |
| 2026-05-03 21:20 | -34.49224 | -58.41997 | 3267 ft | 250 kts | 29° |
| 2026-05-03 21:20 | -34.47724 | -58.40847 | 4054 ft | 257 kts | 29° |
| 2026-05-03 21:21 | -34.46185 | -58.39661 | 4858 ft | 267 kts | 29° |
| 2026-05-03 21:21 | -34.44619 | -58.38453 | 5682 ft | 272 kts | 29° |
| 2026-05-03 21:21 | -34.43010 | -58.37214 | 6535 ft | 276 kts | 29° |
| 2026-05-03 21:21 | -34.41338 | -58.36005 | 7282 ft | 281 kts | 19° |
| 2026-05-03 21:22 | -34.39460 | -58.35570 | 8102 ft | 274 kts | 353° |
| 2026-05-03 21:22 | -34.37618 | -58.36062 | 8743 ft | 270 kts | 331° |
| 2026-05-03 21:22 | -34.36554 | -58.36808 | 9019 ft | 267 kts | 324° |
| 2026-05-03 21:22 | -34.36227 | -58.37065 | 9079 ft | 268 kts | 323° |
| 2026-05-03 21:23 | -34.34880 | -58.38159 | 9632 ft | 272 kts | 322° |
| 2026-05-03 21:23 | -34.33310 | -58.39455 | 10454 ft | 276 kts | 322° |
| 2026-05-03 21:23 | -34.31661 | -58.40819 | 10698 ft | 300 kts | 322° |
| 2026-05-03 21:23 | -34.29861 | -58.42301 | 10876 ft | 324 kts | 323° |
| 2026-05-03 21:24 | -34.27926 | -58.43880 | 11164 ft | 342 kts | 323° |
| 2026-05-03 21:24 | -34.26131 | -58.45729 | 11700 ft | 346 kts | 308° |
| 2026-05-03 21:24 | -34.24799 | -58.48156 | 12415 ft | 346 kts | 295° |
| 2026-05-03 21:24 | -34.23914 | -58.50868 | 13139 ft | 348 kts | 287° |
| 2026-05-03 21:25 | -34.23152 | -58.53672 | 13841 ft | 353 kts | 287° |
| 2026-05-03 21:25 | -34.22390 | -58.56514 | 14496 ft | 357 kts | 286° |
| 2026-05-03 21:25 | -34.21620 | -58.59372 | 15206 ft | 359 kts | 286° |
| 2026-05-03 21:25 | -34.20846 | -58.62221 | 15913 ft | 362 kts | 286° |
| 2026-05-03 21:26 | -34.20052 | -58.65122 | 16604 ft | 365 kts | 286° |
| 2026-05-03 21:26 | -34.19245 | -58.68053 | 17281 ft | 368 kts | 286° |
| 2026-05-03 21:26 | -34.18430 | -58.71002 | 17947 ft | 372 kts | 285° |
| 2026-05-03 21:26 | -34.17603 | -58.73984 | 18570 ft | 375 kts | 285° |
| 2026-05-03 21:27 | -34.16770 | -58.76983 | 19137 ft | 378 kts | 285° |
| 2026-05-03 21:27 | -34.15926 | -58.80015 | 19719 ft | 381 kts | 285° |
| 2026-05-03 21:27 | -34.15079 | -58.83057 | 20290 ft | 384 kts | 285° |
| 2026-05-03 21:27 | -34.14222 | -58.86132 | 20857 ft | 387 kts | 285° |
| 2026-05-03 21:28 | -34.13360 | -58.89220 | 21417 ft | 390 kts | 285° |
| 2026-05-03 21:28 | -34.12500 | -58.92297 | 21966 ft | 392 kts | 285° |
| 2026-05-03 21:28 | -34.12394 | -58.92677 | 22029 ft | 393 kts | 285° |
| 2026-05-03 21:28 | -34.12126 | -58.93633 | 22191 ft | 394 kts | 285° |
| 2026-05-03 21:29 | -34.11259 | -58.96732 | 22712 ft | 397 kts | 285° |
| 2026-05-03 21:29 | -34.10372 | -58.99899 | 23221 ft | 399 kts | 285° |
| 2026-05-03 21:29 | -34.09479 | -59.03086 | 23712 ft | 402 kts | 285° |
| 2026-05-03 21:29 | -34.08577 | -59.06299 | 24133 ft | 405 kts | 285° |
| 2026-05-03 21:30 | -34.07671 | -59.09519 | 24571 ft | 407 kts | 285° |
| 2026-05-03 21:30 | -34.06709 | -59.12744 | 24992 ft | 411 kts | 289° |
| 2026-05-03 21:30 | -34.05401 | -59.15838 | 25406 ft | 417 kts | 296° |
| 2026-05-03 21:30 | -34.03733 | -59.18686 | 25804 ft | 425 kts | 304° |
| 2026-05-03 21:31 | -34.01805 | -59.21462 | 26192 ft | 428 kts | 305° |
| 2026-05-03 21:31 | -33.99890 | -59.24170 | 26556 ft | 430 kts | 305° |
| 2026-05-03 21:31 | -33.97944 | -59.26919 | 26909 ft | 433 kts | 305° |
| 2026-05-03 21:31 | -33.95992 | -59.29687 | 27269 ft | 435 kts | 304° |
| 2026-05-03 21:32 | -33.94027 | -59.32488 | 27627 ft | 437 kts | 304° |
| 2026-05-03 21:32 | -33.92055 | -59.35311 | 27983 ft | 439 kts | 304° |
| 2026-05-03 21:32 | -33.90084 | -59.38136 | 28320 ft | 442 kts | 304° |
| 2026-05-03 21:32 | -33.88105 | -59.40975 | 28649 ft | 444 kts | 304° |
| 2026-05-03 21:33 | -33.86109 | -59.43837 | 28974 ft | 446 kts | 304° |
| 2026-05-03 21:33 | -33.84110 | -59.46700 | 29368 ft | 446 kts | 304° |
| 2026-05-03 21:33 | -33.82139 | -59.49518 | 29884 ft | 444 kts | 304° |
| 2026-05-03 21:33 | -33.80153 | -59.52355 | 30394 ft | 441 kts | 304° |
| 2026-05-03 21:34 | -33.78182 | -59.55170 | 30803 ft | 440 kts | 304° |
| 2026-05-03 21:34 | -33.76223 | -59.57966 | 31165 ft | 440 kts | 303° |
| 2026-05-03 21:34 | -33.74244 | -59.60792 | 31535 ft | 439 kts | 303° |
| 2026-05-03 21:34 | -33.72276 | -59.63599 | 31938 ft | 438 kts | 303° |
| 2026-05-03 21:35 | -33.70311 | -59.66395 | 32344 ft | 436 kts | 303° |
| 2026-05-03 21:35 | -33.68353 | -59.69178 | 32721 ft | 436 kts | 303° |
| 2026-05-03 21:35 | -33.66399 | -59.71950 | 33095 ft | 435 kts | 303° |
| 2026-05-03 21:35 | -33.64445 | -59.74718 | 33459 ft | 434 kts | 303° |
| 2026-05-03 21:36 | -33.62497 | -59.77477 | 33840 ft | 433 kts | 303° |
| 2026-05-03 21:36 | -33.60548 | -59.80237 | 34062 ft | 434 kts | 303° |
| 2026-05-03 21:36 | -33.56625 | -59.85792 | 34053 ft | 436 kts | 303° |
| 2026-05-03 21:37 | -33.52744 | -59.91268 | 34047 ft | 431 kts | 303° |
| 2026-05-03 21:37 | -33.48865 | -59.96740 | 34058 ft | 430 kts | 303° |
| 2026-05-03 21:38 | -33.44984 | -60.02208 | 34054 ft | 430 kts | 303° |
| 2026-05-03 21:38 | -33.41105 | -60.07665 | 34050 ft | 430 kts | 303° |
| 2026-05-03 21:39 | -33.37219 | -60.13122 | 34051 ft | 430 kts | 303° |
| 2026-05-03 21:39 | -33.33347 | -60.18552 | 34046 ft | 431 kts | 303° |
| 2026-05-03 21:40 | -33.29452 | -60.24005 | 34048 ft | 432 kts | 303° |
| 2026-05-03 21:40 | -33.25542 | -60.29470 | 34046 ft | 432 kts | 303° |
| 2026-05-03 21:41 | -33.21634 | -60.34925 | 34041 ft | 432 kts | 303° |
| 2026-05-03 21:41 | -33.17713 | -60.40390 | 34043 ft | 433 kts | 303° |
| 2026-05-03 21:42 | -33.13812 | -60.45818 | 34036 ft | 433 kts | 303° |
| 2026-05-03 21:42 | -33.09876 | -60.51288 | 34042 ft | 433 kts | 303° |
| 2026-05-03 21:43 | -33.05942 | -60.56746 | 34040 ft | 433 kts | 303° |
| 2026-05-03 21:43 | -33.02012 | -60.62192 | 34048 ft | 433 kts | 303° |
| 2026-05-03 21:44 | -32.98073 | -60.67642 | 34042 ft | 433 kts | 303° |
| 2026-05-03 21:44 | -32.94156 | -60.73054 | 34050 ft | 433 kts | 303° |
| 2026-05-03 21:45 | -32.90286 | -60.78533 | 34044 ft | 428 kts | 298° |
| 2026-05-03 21:45 | -32.87241 | -60.84527 | 34043 ft | 423 kts | 293° |
| 2026-05-03 21:46 | -32.84301 | -60.90593 | 34047 ft | 422 kts | 293° |
| 2026-05-03 21:46 | -32.81340 | -60.96646 | 34041 ft | 423 kts | 294° |
| 2026-05-03 21:47 | -32.78360 | -61.02683 | 34041 ft | 423 kts | 294° |
| 2026-05-03 21:47 | -32.75373 | -61.08710 | 34031 ft | 423 kts | 294° |
| 2026-05-03 21:48 | -32.72400 | -61.14697 | 34032 ft | 423 kts | 294° |
| 2026-05-03 21:48 | -32.69405 | -61.20718 | 34024 ft | 423 kts | 294° |
| 2026-05-03 21:49 | -32.66410 | -61.26731 | 34028 ft | 423 kts | 294° |
| 2026-05-03 21:49 | -32.63406 | -61.32752 | 34025 ft | 423 kts | 294° |
| 2026-05-03 21:50 | -32.60399 | -61.38772 | 34025 ft | 423 kts | 294° |
| 2026-05-03 21:50 | -32.57389 | -61.44785 | 34023 ft | 423 kts | 294° |
| 2026-05-03 21:51 | -32.54396 | -61.50755 | 34013 ft | 423 kts | 294° |
| 2026-05-03 21:51 | -32.51380 | -61.56761 | 34024 ft | 423 kts | 294° |
| 2026-05-03 21:52 | -32.48363 | -61.62761 | 34027 ft | 423 kts | 294° |
| 2026-05-03 21:52 | -32.45349 | -61.68744 | 34017 ft | 423 kts | 294° |
| 2026-05-03 21:53 | -32.42356 | -61.74677 | 34018 ft | 422 kts | 294° |
| 2026-05-03 21:53 | -32.39340 | -61.80647 | 34015 ft | 422 kts | 294° |
| 2026-05-03 21:54 | -32.36327 | -61.86604 | 34020 ft | 421 kts | 295° |
| 2026-05-03 21:54 | -32.33313 | -61.92547 | 34016 ft | 421 kts | 295° |
| 2026-05-03 21:55 | -32.30292 | -61.98481 | 34014 ft | 421 kts | 295° |
| 2026-05-03 21:55 | -32.27292 | -62.04366 | 34013 ft | 420 kts | 295° |
| 2026-05-03 21:56 | -32.24271 | -62.10286 | 34015 ft | 420 kts | 295° |
| 2026-05-03 21:56 | -32.21256 | -62.16184 | 34014 ft | 420 kts | 295° |
| 2026-05-03 21:57 | -32.18232 | -62.22093 | 34014 ft | 419 kts | 295° |
| 2026-05-03 21:57 | -32.15214 | -62.27981 | 34016 ft | 419 kts | 295° |
| 2026-05-03 21:58 | -32.12191 | -62.33871 | 34015 ft | 419 kts | 295° |
| 2026-05-03 21:58 | -32.09180 | -62.39727 | 34015 ft | 419 kts | 295° |
| 2026-05-03 21:59 | -32.06154 | -62.45602 | 34014 ft | 419 kts | 295° |
| 2026-05-03 21:59 | -32.03118 | -62.51491 | 33572 ft | 424 kts | 295° |
| 2026-05-03 22:00 | -32.01585 | -62.54462 | 32924 ft | 422 kts | 295° |
| 2026-05-03 22:00 | -32.00065 | -62.57400 | 32209 ft | 421 kts | 295° |
| 2026-05-03 22:00 | -31.98555 | -62.60319 | 31442 ft | 421 kts | 295° |
| 2026-05-03 22:00 | -31.97027 | -62.63271 | 30651 ft | 423 kts | 295° |
| 2026-05-03 22:01 | -31.95498 | -62.66222 | 30031 ft | 420 kts | 296° |
| 2026-05-03 22:01 | -31.93979 | -62.69149 | 29330 ft | 417 kts | 296° |
| 2026-05-03 22:01 | -31.92474 | -62.72044 | 28722 ft | 412 kts | 296° |
| 2026-05-03 22:01 | -31.91491 | -62.73936 | 28328 ft | 408 kts | 296° |
| 2026-05-03 22:02 | -31.90012 | -62.76779 | 27747 ft | 404 kts | 296° |
| 2026-05-03 22:02 | -31.88553 | -62.79586 | 27156 ft | 400 kts | 296° |
| 2026-05-03 22:02 | -31.87108 | -62.82363 | 26585 ft | 396 kts | 296° |
| 2026-05-03 22:02 | -31.85677 | -62.85114 | 26023 ft | 392 kts | 296° |
| 2026-05-03 22:03 | -31.84258 | -62.87838 | 25464 ft | 389 kts | 296° |
| 2026-05-03 22:03 | -31.82846 | -62.90548 | 24906 ft | 386 kts | 296° |
| 2026-05-03 22:03 | -31.81297 | -62.93139 | 24313 ft | 393 kts | 308° |
| 2026-05-03 22:03 | -31.79092 | -62.95105 | 23774 ft | 405 kts | 326° |
| 2026-05-03 22:04 | -31.76415 | -62.96257 | 23178 ft | 413 kts | 339° |
| 2026-05-03 22:04 | -31.73629 | -62.97036 | 22685 ft | 410 kts | 341° |
| 2026-05-03 22:04 | -31.70865 | -62.97735 | 22365 ft | 401 kts | 342° |
| 2026-05-03 22:04 | -31.68188 | -62.98387 | 22117 ft | 399 kts | 342° |
| 2026-05-03 22:05 | -31.65416 | -62.99065 | 21880 ft | 413 kts | 342° |
| 2026-05-03 22:05 | -31.62585 | -62.99766 | 21639 ft | 419 kts | 342° |
| 2026-05-03 22:05 | -31.59725 | -63.00479 | 21386 ft | 417 kts | 342° |
| 2026-05-03 22:05 | -31.56891 | -63.01189 | 21130 ft | 414 kts | 342° |
| 2026-05-03 22:06 | -31.54082 | -63.01894 | 20880 ft | 412 kts | 342° |
| 2026-05-03 22:06 | -31.51285 | -63.02600 | 20634 ft | 410 kts | 342° |
| 2026-05-03 22:06 | -31.48507 | -63.03306 | 20399 ft | 408 kts | 342° |
| 2026-05-03 22:06 | -31.45732 | -63.04016 | 20158 ft | 407 kts | 342° |
| 2026-05-03 22:07 | -31.42963 | -63.04729 | 19912 ft | 406 kts | 342° |
| 2026-05-03 22:07 | -31.40219 | -63.05438 | 19643 ft | 401 kts | 342° |
| 2026-05-03 22:07 | -31.37494 | -63.06147 | 18985 ft | 402 kts | 342° |
| 2026-05-03 22:07 | -31.34802 | -63.06851 | 18760 ft | 392 kts | 342° |
| 2026-05-03 22:08 | -31.32170 | -63.07540 | 18523 ft | 386 kts | 342° |
| 2026-05-03 22:08 | -31.29557 | -63.08231 | 18308 ft | 393 kts | 342° |
| 2026-05-03 22:08 | -31.26836 | -63.08960 | 18056 ft | 398 kts | 342° |
| 2026-05-03 22:08 | -31.24187 | -63.09676 | 17803 ft | 395 kts | 342° |
| 2026-05-03 22:09 | -31.21517 | -63.10404 | 17539 ft | 392 kts | 342° |
| 2026-05-03 22:09 | -31.18869 | -63.11133 | 17283 ft | 390 kts | 342° |
| 2026-05-03 22:09 | -31.16229 | -63.11866 | 17031 ft | 389 kts | 342° |
| 2026-05-03 22:10 | -31.10986 | -63.13342 | 16536 ft | 386 kts | 342° |
| 2026-05-03 22:10 | -31.08396 | -63.14080 | 16292 ft | 385 kts | 342° |
| 2026-05-03 22:10 | -31.05787 | -63.14830 | 16049 ft | 384 kts | 342° |
| 2026-05-03 22:10 | -31.03196 | -63.15582 | 15802 ft | 383 kts | 342° |
| 2026-05-03 22:11 | -31.00614 | -63.16335 | 15566 ft | 382 kts | 342° |
| 2026-05-03 22:11 | -30.98038 | -63.17093 | 15332 ft | 381 kts | 342° |
| 2026-05-03 22:11 | -30.95563 | -63.18108 | 15076 ft | 375 kts | 329° |
| 2026-05-03 22:11 | -30.93350 | -63.19669 | 14860 ft | 370 kts | 323° |
| 2026-05-03 22:12 | -30.91213 | -63.21340 | 14626 ft | 369 kts | 322° |
| 2026-05-03 22:12 | -30.89098 | -63.23035 | 14392 ft | 368 kts | 322° |
| 2026-05-03 22:12 | -30.86999 | -63.24729 | 14164 ft | 367 kts | 322° |
| 2026-05-03 22:12 | -30.84904 | -63.26429 | 13936 ft | 365 kts | 322° |
| 2026-05-03 22:13 | -30.82824 | -63.28125 | 13699 ft | 364 kts | 322° |
| 2026-05-03 22:13 | -30.80782 | -63.29796 | 13442 ft | 363 kts | 322° |
| 2026-05-03 22:13 | -30.78880 | -63.31692 | 13163 ft | 358 kts | 307° |
| 2026-05-03 22:13 | -30.77682 | -63.34187 | 12916 ft | 352 kts | 286° |
| 2026-05-03 22:14 | -30.77358 | -63.36981 | 12671 ft | 349 kts | 265° |
| 2026-05-03 22:14 | -30.77940 | -63.39694 | 12419 ft | 348 kts | 245° |
| 2026-05-03 22:14 | -30.79345 | -63.41969 | 12181 ft | 349 kts | 224° |
| 2026-05-03 22:14 | -30.81377 | -63.43504 | 12068 ft | 346 kts | 206° |
| 2026-05-03 22:15 | -30.83561 | -63.44548 | 12024 ft | 334 kts | 203° |
| 2026-05-03 22:15 | -30.85718 | -63.45487 | 12019 ft | 330 kts | 202° |
| 2026-05-03 22:15 | -30.87881 | -63.46413 | 12021 ft | 333 kts | 202° |
| 2026-05-03 22:15 | -30.90068 | -63.47345 | 12024 ft | 335 kts | 202° |
| 2026-05-03 22:16 | -30.92227 | -63.48263 | 12005 ft | 334 kts | 202° |
| 2026-05-03 22:16 | -30.94403 | -63.49187 | 12003 ft | 333 kts | 202° |
| 2026-05-03 22:16 | -30.96585 | -63.50115 | 12008 ft | 333 kts | 202° |
| 2026-05-03 22:16 | -30.98767 | -63.51042 | 12019 ft | 332 kts | 202° |
| 2026-05-03 22:17 | -31.00941 | -63.51968 | 12016 ft | 332 kts | 202° |
| 2026-05-03 22:17 | -31.03116 | -63.52895 | 12020 ft | 333 kts | 202° |
| 2026-05-03 22:17 | -31.05294 | -63.53825 | 12024 ft | 333 kts | 202° |
| 2026-05-03 22:17 | -31.07472 | -63.54756 | 12015 ft | 333 kts | 202° |
| 2026-05-03 22:18 | -31.09654 | -63.55691 | 12022 ft | 334 kts | 202° |
| 2026-05-03 22:18 | -31.11832 | -63.56625 | 12010 ft | 334 kts | 202° |
| 2026-05-03 22:18 | -31.13993 | -63.57553 | 12013 ft | 334 kts | 202° |
| 2026-05-03 22:18 | -31.16182 | -63.58494 | 12015 ft | 335 kts | 202° |
| 2026-05-03 22:19 | -31.18370 | -63.59436 | 12017 ft | 335 kts | 202° |
| 2026-05-03 22:19 | -31.20556 | -63.60378 | 12019 ft | 335 kts | 202° |
| 2026-05-03 22:19 | -31.22739 | -63.61319 | 11999 ft | 335 kts | 202° |
| 2026-05-03 22:19 | -31.24945 | -63.62272 | 11528 ft | 340 kts | 202° |
| 2026-05-03 22:20 | -31.27171 | -63.63237 | 11049 ft | 341 kts | 202° |
| 2026-05-03 22:20 | -31.29379 | -63.64199 | 10786 ft | 332 kts | 202° |
| 2026-05-03 22:20 | -31.31512 | -63.65127 | 10615 ft | 323 kts | 202° |
| 2026-05-03 22:20 | -31.33604 | -63.66038 | 10480 ft | 318 kts | 202° |
| 2026-05-03 22:21 | -31.35689 | -63.66948 | 10355 ft | 323 kts | 202° |
| 2026-05-03 22:21 | -31.37789 | -63.67867 | 10212 ft | 320 kts | 202° |
| 2026-05-03 22:21 | -31.39670 | -63.68690 | 10081 ft | 311 kts | 202° |
| 2026-05-03 22:21 | -31.41677 | -63.69566 | 9811 ft | 306 kts | 202° |
| 2026-05-03 22:22 | -31.43656 | -63.70427 | 9469 ft | 302 kts | 202° |
| 2026-05-03 22:22 | -31.45609 | -63.71273 | 9274 ft | 296 kts | 203° |
| 2026-05-03 22:22 | -31.47544 | -63.72109 | 9014 ft | 296 kts | 202° |
| 2026-05-03 22:22 | -31.49471 | -63.72942 | 8768 ft | 294 kts | 203° |
| 2026-05-03 22:23 | -31.51387 | -63.73767 | 8516 ft | 292 kts | 203° |
| 2026-05-03 22:23 | -31.53294 | -63.74588 | 8262 ft | 290 kts | 202° |
| 2026-05-03 22:23 | -31.55170 | -63.75443 | 8063 ft | 288 kts | 211° |
| 2026-05-03 22:23 | -31.56660 | -63.76920 | 8017 ft | 285 kts | 236° |
| 2026-05-03 22:24 | -31.57739 | -63.78856 | 8011 ft | 282 kts | 242° |
| 2026-05-03 22:24 | -31.58737 | -63.80846 | 7996 ft | 281 kts | 242° |
| 2026-05-03 22:24 | -31.59704 | -63.82807 | 7986 ft | 272 kts | 243° |
| 2026-05-03 22:24 | -31.60625 | -63.84680 | 7976 ft | 259 kts | 243° |
| 2026-05-03 22:25 | -31.61506 | -63.86462 | 7978 ft | 246 kts | 243° |
| 2026-05-03 22:25 | -31.62196 | -63.88237 | 7866 ft | 238 kts | 264° |
| 2026-05-03 22:25 | -31.61915 | -63.90096 | 7620 ft | 233 kts | 303° |
| 2026-05-03 22:25 | -31.60816 | -63.91444 | 7413 ft | 229 kts | 320° |
| 2026-05-03 22:26 | -31.59520 | -63.92539 | 7174 ft | 228 kts | 326° |
| 2026-05-03 22:26 | -31.58211 | -63.93526 | 7037 ft | 224 kts | 327° |
| 2026-05-03 22:26 | -31.56924 | -63.94491 | 7002 ft | 213 kts | 327° |
| 2026-05-03 22:26 | -31.55726 | -63.95398 | 7003 ft | 196 kts | 327° |
| 2026-05-03 22:27 | -31.54620 | -63.96242 | 6994 ft | 187 kts | 327° |
| 2026-05-03 22:27 | -31.53503 | -63.97100 | 6716 ft | 197 kts | 327° |
| 2026-05-03 22:27 | -31.52365 | -63.97978 | 6453 ft | 194 kts | 327° |
| 2026-05-03 22:27 | -31.51254 | -63.98839 | 6203 ft | 189 kts | 327° |
| 2026-05-03 22:28 | -31.50174 | -63.99678 | 6047 ft | 185 kts | 327° |
| 2026-05-03 22:28 | -31.49103 | -64.00510 | 6000 ft | 184 kts | 327° |
| 2026-05-03 22:28 | -31.48044 | -64.01334 | 5994 ft | 183 kts | 327° |
| 2026-05-03 22:28 | -31.46982 | -64.02161 | 6002 ft | 184 kts | 327° |
| 2026-05-03 22:29 | -31.45914 | -64.02991 | 5998 ft | 184 kts | 327° |
| 2026-05-03 22:29 | -31.44871 | -64.03840 | 5909 ft | 182 kts | 317° |
| 2026-05-03 22:29 | -31.44359 | -64.05171 | 5607 ft | 186 kts | 278° |
| 2026-05-03 22:29 | -31.44280 | -64.06689 | 5252 ft | 188 kts | 278° |
| 2026-05-03 22:30 | -31.44168 | -64.08220 | 4934 ft | 188 kts | 279° |
| 2026-05-03 22:30 | -31.44049 | -64.09732 | 4686 ft | 184 kts | 279° |
| 2026-05-03 22:30 | -31.43928 | -64.11213 | 4534 ft | 183 kts | 279° |
| 2026-05-03 22:30 | -31.43802 | -64.12717 | 4347 ft | 188 kts | 280° |
| 2026-05-03 22:31 | -31.43672 | -64.14255 | 4142 ft | 191 kts | 280° |
| 2026-05-03 22:31 | -31.43500 | -64.15791 | 3898 ft | 188 kts | 291° |
| 2026-05-03 22:31 | -31.42734 | -64.16946 | 3785 ft | 182 kts | 327° |
| 2026-05-03 22:31 | -31.41653 | -64.17747 | 3716 ft | 185 kts | 331° |
| 2026-05-03 22:32 | -31.40509 | -64.18538 | 3294 ft | 189 kts | 332° |
| 2026-05-03 22:32 | -31.39404 | -64.19301 | 2968 ft | 179 kts | 332° |
| 2026-05-03 22:32 | -31.38374 | -64.20015 | 2722 ft | 169 kts | 333° |
| 2026-05-03 22:32 | -31.37377 | -64.20644 | 2515 ft | 155 kts | 346° |
| 2026-05-03 22:33 | -31.36380 | -64.20787 | 2347 ft | 137 kts | 1° |
| 2026-05-03 22:33 | -31.35430 | -64.20749 | 2107 ft | 137 kts | 1° |
| 2026-05-03 22:33 | -31.34491 | -64.20781 | 1928 ft | 133 kts | 359° |
| 2026-05-03 22:33 | -31.33585 | -64.20790 | 1770 ft | 129 kts | 359° |
| 2026-05-03 22:34 | -31.32697 | -64.20806 | 1628 ft | 125 kts | 0° |
| 2026-05-03 22:34 | -31.31977 | -64.20819 | 1575 ft | 66 kts | 359° |
| 2026-05-03 22:34 | -31.31608 | -64.20823 | 1575 ft | 45 kts | 358° |
| 2026-05-03 22:34 | -31.31467 | -64.20923 | 1574 ft | 17 kts | 277° |
| 2026-05-03 22:35 | -31.31466 | -64.20962 | 1574 ft | 0 kts | 270° |
| 2026-05-03 22:36 | -31.31466 | -64.20963 | 1574 ft | 0 kts | 270° |
| 2026-05-03 22:36 | -31.31465 | -64.20977 | 1574 ft | 4 kts | 270° |
| 2026-05-03 22:36 | -31.31468 | -64.21026 | 1574 ft | 8 kts | 255° |
| 2026-05-03 22:37 | -31.31516 | -64.21078 | 1574 ft | 11 kts | 201° |
| 2026-05-03 22:37 | -31.31591 | -64.21091 | 1574 ft | 11 kts | 184° |
| 2026-05-03 22:37 | -31.31665 | -64.21098 | 1574 ft | 10 kts | 185° |
| 2026-05-03 22:37 | -31.31688 | -64.21130 | 1574 ft | 5 kts | 279° |
| 2026-05-03 22:38 | -31.31678 | -64.21156 | 1574 ft | 0 kts | 309° |